Abington, Pennsylvania
Current Conditions -  °F | °C
As of 8:54 PM on Saturday 22 Nov 2014 (Local Time) from KPNE Reporting Station
Overcast Overcast  
Wind Chill:   Ceiling: 7500
Heat Index:   Visibility: 10mi
Dew Point: -7°   Wind: 9mph
Humidity: 36%   Direction: 220°SW
Pressure: 30.28"   Gusts: NA
Location:  40.12°N, 75.12°W
Report Text: KPNE 230154Z AUTO 22008KT 10SM BKN075 OVC120 07/M07 A3028 RMK AO2 SLP253 T00721072 TSNO
Loading
Personal Weather Stations






























Interactive Weather Map New forecast layout! Learn more

10-Day Weather Forecast

Advertisements
Track Severe Weather on mobile